Solea — DBFI — position and weather

sailwx.info

Track history (hours):
 
Tides and Currents Weather Stations Pressure Air Temp Water Temp Dewpoint Dewpoint Depression Visibility Wind Speed Wind Dir Waves Ship Positions

Oceanographic research ship Solea (Germany)

Detailed information on ship capabilities available from University of Delaware's Ocean Information Center.

Last reported at 2019-Jun-16 07:52 UTC. Time now 2019-Jun-16 14:34 UTC.
Position N 53°52' E 008°43'.

Length 72 m; draft 5.2 m.

Type: Law enforcement. MMSI: 218692000.

Date/timePositionNaut miles runAvg speedWind from/ knotsBaromVisibWave heightAir tempDewpointWater temp
2019-Jun-16 07:52N 53°52' E 008°43'0 0.0
2019-Jun-16 04:52N 53°52' E 008°43'0 0.0
2019-Jun-16 00:43N 53°52' E 008°43'0 0.0
2019-Jun-16 00:10N 53°52' E 008°43'0 0.0
2019-Jun-15 23:55N 53°52' E 008°43'0 0.0
2019-Jun-15 21:52N 53°52' E 008°43'0 0.0
2019-Jun-15 08:40N 53°52' E 008°43'0 0.0
2019-Jun-15 06:10N 53°52' E 008°43'0 0.0
2019-Jun-15 05:40N 53°52' E 008°43'0 0.0
2019-Jun-15 04:34N 53°52' E 008°43'0 0.0
2019-Jun-15 04:28N 53°52' E 008°43'0 0.0
2019-Jun-15 01:22N 53°52' E 008°43'0 0.0
2019-Jun-15 00:28N 53°52' E 008°43'0 0.0
2019-Jun-14 20:01N 53°52' E 008°43'0 0.0
2019-Jun-14 19:31N 53°52' E 008°43'0 0.0
2019-Jun-14 18:01N 53°52' E 008°43'0 0.0
2019-Jun-13 22:40N 53°52' E 008°43'0 0.0
2019-Jun-13 22:22N 53°52' E 008°43'0 0.0
2019-Jun-13 21:55N 53°52' E 008°43'0 0.0
2019-Jun-13 20:34N 53°52' E 008°43'0 0.0
2019-Jun-13 20:28N 53°52' E 008°43'0 0.0
2019-Jun-13 05:40N 53°52' E 008°43'0 0.0
2019-Jun-13 02:16N 53°52' E 008°43'0 0.0
2019-Jun-13 01:22N 53°52' E 008°43'0 0.0
2019-Jun-13 00:19N 53°52' E 008°43'0 0.0
2019-Jun-12 18:42N 53°52' E 008°43'0 0.0
2019-Jun-12 15:23N 53°52' E 008°43'1 3.6
2019-Jun-12 15:00N 53°53' E 008°42'5 9.3
2019-Jun-12 14:31N 53°57' E 008°37'5 9.7
2019-Jun-12 14:00N 53°58' E 008°29'7 9.3
2019-Jun-12 13:12N 53°60' E 008°17'16 2.8
2019-Jun-12 07:18N 54°10' E 007°54'0 0.0
2019-Jun-12 07:00N 54°10' E 007°54'1 1.8
2019-Jun-12 06:30N 54°09' E 007°54'510.4
2019-Jun-12 06:00N 54°11' E 007°46'510.6
2019-Jun-12 05:30N 54°14' E 007°39'510.6
2019-Jun-12 04:59N 54°17' E 007°31'510.9
2019-Jun-12 04:30N 54°20' E 007°24'611.1
2019-Jun-12 04:00N 54°23' E 007°16'2011.1
2019-Jun-12 02:14N 54°35' E 006°49'8712.5
2019-Jun-11 19:15N 55°20' E 004°39'63 9.3
2019-Jun-11 12:26N 55°52' E 003°03'168 9.8
2019-Jun-10 19:21N 57°27' W 001°08'410.8
2019-Jun-10 18:59N 57°30' W 001°13'511.1
2019-Jun-10 18:30N 57°34' W 001°20'611.3
2019-Jun-10 18:00N 57°38' W 001°28'611.2
2019-Jun-10 17:30N 57°42' W 001°35'611.5
2019-Jun-10 16:58N 57°47' W 001°43'6210.4
2019-Jun-10 11:03N 58°33' W 002°59'010.1
2019-Jun-10 11:01N 58°34' W 002°60'1 1.3
2019-Jun-10 10:29N 58°34' W 003°01'1 0.9
2019-Jun-10 09:55N 58°33' W 003°02'2 4.1
2019-Jun-10 09:30N 58°35' W 003°01'1 1.4
2019-Jun-10 08:37N 58°34' W 003°02'1 1.5
2019-Jun-10 08:07N 58°33' W 003°02'1 0.1
2019-Jun-09 09:14N 58°33' W 003°00'210.0
2019-Jun-09 09:00N 58°36' W 002°59'510.3
2019-Jun-09 08:30N 58°41' W 003°01'4 8.3
2019-Jun-09 08:00N 58°43' W 003°07'3 6.7
2019-Jun-09 07:30N 58°43' W 003°14'4 8.3
2019-Jun-09 07:00N 58°44' W 003°22'510.7
2019-Jun-09 06:30N 58°49' W 003°25'2 3.3
2019-Jun-09 06:00N 58°50' W 003°28'4 8.3
2019-Jun-09 05:30N 58°48' W 003°35'4 8.5
2019-Jun-09 05:00N 58°48' W 003°43'9 8.7
2019-Jun-09 04:00N 58°47' W 003°60'4 8.8
2019-Jun-09 03:30N 58°47' W 004°08'5 9.8
2019-Jun-09 02:57N 58°46' W 004°18'  
Track history (hours):
 
Tides and Currents Weather Stations Pressure Air Temp Water Temp Dewpoint Dewpoint Depression Visibility Wind Speed Wind Dir Waves Ship Positions

Oceanographic research ship Solea (Germany)

Detailed information on ship capabilities available from University of Delaware's Ocean Information Center.

Last reported at 2019-Jun-16 07:52 UTC. Time now 2019-Jun-16 14:34 UTC.
Position N 53°52' E 008°43'.

Length 72 m; draft 5.2 m.

Type: Law enforcement. MMSI: 218692000.

Date/timePositionNaut miles runAvg speedWind from/ knotsBaromVisibWave heightAir tempDewpointWater temp
2019-Jun-16 07:52N 53°52' E 008°43'0 0.0
2019-Jun-16 04:52N 53°52' E 008°43'0 0.0
2019-Jun-16 00:43N 53°52' E 008°43'0 0.0
2019-Jun-16 00:10N 53°52' E 008°43'0 0.0
2019-Jun-15 23:55N 53°52' E 008°43'0 0.0
2019-Jun-15 21:52N 53°52' E 008°43'0 0.0
2019-Jun-15 08:40N 53°52' E 008°43'0 0.0
2019-Jun-15 06:10N 53°52' E 008°43'0 0.0
2019-Jun-15 05:40N 53°52' E 008°43'0 0.0
2019-Jun-15 04:34N 53°52' E 008°43'0 0.0
2019-Jun-15 04:28N 53°52' E 008°43'0 0.0
2019-Jun-15 01:22N 53°52' E 008°43'0 0.0
2019-Jun-15 00:28N 53°52' E 008°43'0 0.0
2019-Jun-14 20:01N 53°52' E 008°43'0 0.0
2019-Jun-14 19:31N 53°52' E 008°43'0 0.0
2019-Jun-14 18:01N 53°52' E 008°43'0 0.0
2019-Jun-13 22:40N 53°52' E 008°43'0 0.0
2019-Jun-13 22:22N 53°52' E 008°43'0 0.0
2019-Jun-13 21:55N 53°52' E 008°43'0 0.0
2019-Jun-13 20:34N 53°52' E 008°43'0 0.0
2019-Jun-13 20:28N 53°52' E 008°43'0 0.0
2019-Jun-13 05:40N 53°52' E 008°43'0 0.0
2019-Jun-13 02:16N 53°52' E 008°43'0 0.0
2019-Jun-13 01:22N 53°52' E 008°43'0 0.0
2019-Jun-13 00:19N 53°52' E 008°43'0 0.0
2019-Jun-12 18:42N 53°52' E 008°43'0 0.0
2019-Jun-12 15:23N 53°52' E 008°43'1 3.6
2019-Jun-12 15:00N 53°53' E 008°42'5 9.3
2019-Jun-12 14:31N 53°57' E 008°37'5 9.7
2019-Jun-12 14:00N 53°58' E 008°29'7 9.3
2019-Jun-12 13:12N 53°60' E 008°17'16 2.8
2019-Jun-12 07:18N 54°10' E 007°54'0 0.0
2019-Jun-12 07:00N 54°10' E 007°54'1 1.8
2019-Jun-12 06:30N 54°09' E 007°54'510.4
2019-Jun-12 06:00N 54°11' E 007°46'510.6
2019-Jun-12 05:30N 54°14' E 007°39'510.6
2019-Jun-12 04:59N 54°17' E 007°31'510.9
2019-Jun-12 04:30N 54°20' E 007°24'611.1
2019-Jun-12 04:00N 54°23' E 007°16'2011.1
2019-Jun-12 02:14N 54°35' E 006°49'8712.5
2019-Jun-11 19:15N 55°20' E 004°39'63 9.3
2019-Jun-11 12:26N 55°52' E 003°03'168 9.8
2019-Jun-10 19:21N 57°27' W 001°08'410.8
2019-Jun-10 18:59N 57°30' W 001°13'511.1
2019-Jun-10 18:30N 57°34' W 001°20'611.3
2019-Jun-10 18:00N 57°38' W 001°28'611.2
2019-Jun-10 17:30N 57°42' W 001°35'611.5
2019-Jun-10 16:58N 57°47' W 001°43'6210.4
2019-Jun-10 11:03N 58°33' W 002°59'010.1
2019-Jun-10 11:01N 58°34' W 002°60'1 1.3
2019-Jun-10 10:29N 58°34' W 003°01'1 0.9
2019-Jun-10 09:55N 58°33' W 003°02'2 4.1
2019-Jun-10 09:30N 58°35' W 003°01'1 1.4
2019-Jun-10 08:37N 58°34' W 003°02'1 1.5
2019-Jun-10 08:07N 58°33' W 003°02'1 0.1
2019-Jun-09 09:14N 58°33' W 003°00'210.0
2019-Jun-09 09:00N 58°36' W 002°59'510.3
2019-Jun-09 08:30N 58°41' W 003°01'4 8.3
2019-Jun-09 08:00N 58°43' W 003°07'3 6.7
2019-Jun-09 07:30N 58°43' W 003°14'4 8.3
2019-Jun-09 07:00N 58°44' W 003°22'510.7
2019-Jun-09 06:30N 58°49' W 003°25'2 3.3
2019-Jun-09 06:00N 58°50' W 003°28'4 8.3
2019-Jun-09 05:30N 58°48' W 003°35'4 8.5
2019-Jun-09 05:00N 58°48' W 003°43'9 8.7
2019-Jun-09 04:00N 58°47' W 003°60'4 8.8
2019-Jun-09 03:30N 58°47' W 004°08'5 9.8
2019-Jun-09 02:57N 58°46' W 004°18'  

Dump ship's entire track history